ソウル/仁川 の空港の天気 - METARとTAF

仁川国際空港 ( RKSI / ICN ) - 韓国 仁川広域市 (ソウル特別市近郊)
飛行場実況気象(Metar)
観測時間09/25 10:30 KST (09/25 01:30 UTC)
風向・風速北東 5m/s
視程10km以上
天気現象
なし
気温19℃
湿度46%
気圧1021hPa
METARRKSI 250130Z 04010KT CAVOK 19/07 Q1021 NOSIG
過去の天気等 Google飛行場航空写真 Wunderground天気予報

過去48時間のMETAR

飛行場予報(TAF)
発表時間: 9/25 08:00 KST (9/24 23:00 UTC)
予報対象時間: 25日9時 KST ~ 26日15時 KST
風向・風速東北東 4m/s
視程10km以上
少しの雲 雲底高度 910m
25日14時 KST ~ 25日15時 KST に徐々に
風向・風速北北西 4m/s
25日22時 KST ~ 25日23時 KST に徐々に
風向・風速東北東 5m/s
TAF RKSI 242300Z 2500/2606 07007KT 9999 FEW030 TX22/2505Z TN14/2521Z TX23/2605Z
BECMG 2505/2506 34008KT
BECMG 2513/2514 07010KT